Time;durP1;ratioP1;P1;durP2;ratioP2;P2;SDS_P1;SDS_P2;PMS_P1;PMS_P2;Temp;Humidity;BMP_temperature;BMP_pressure;BME280_temperature;BME280_humidity;BME280_pressure;Samples;Min_cycle;Max_cycle;Signal;HPM_P1;HPM_P2
2024/01/31 00:01:46;;;;;;;;;;;16.30;66.30;;;;;;6245134;22;19938;-77
2024/01/31 00:04:11;;;;;;;;;;;16.40;66.80;;;;;;6244770;23;20326;-77
2024/01/31 00:06:37;;;;;;;;;;;16.20;66.80;;;;;;6245359;23;19911;-78
2024/01/31 00:09:03;;;;;;;;;;;16.30;66.70;;;;;;6244619;23;20319;-78
2024/01/31 00:11:29;;;;;;;;;;;16.20;66.60;;;;;;6244781;23;19910;-79
2024/01/31 00:13:57;;;;;;;;;;;16.30;66.40;;;;;;6244768;23;19910;-78
2024/01/31 00:16:22;;;;;;;;;;;16.20;62.20;;;;;;6244674;23;19926;-77
2024/01/31 00:18:50;;;;;;;;;;;16.20;66.90;;;;;;6244431;23;20319;-77
2024/01/31 00:21:18;;;;;;;;;;;16.20;66.70;;;;;;6244654;23;19904;-77
2024/01/31 00:23:44;;;;;;;;;;;16.20;62.20;;;;;;6244453;23;19904;-77
2024/01/31 00:26:10;;;;;;;;;;;16.20;66.70;;;;;;6243601;23;19935;-77
2024/01/31 00:28:35;;;;;;;;;;;16.80;67.00;;;;;;6244431;23;19950;-77
2024/01/31 00:31:01;;;;;;;;;;;16.20;66.80;;;;;;6244642;23;19908;-77
2024/01/31 00:33:27;;;;;;;;;;;16.20;66.90;;;;;;6244716;23;20327;-78
2024/01/31 00:35:53;;;;;;;;;;;16.20;66.90;;;;;;6244691;23;19981;-77
2024/01/31 00:38:18;;;;;;;;;;;16.20;66.60;;;;;;6244801;23;20320;-77
2024/01/31 00:40:44;;;;;;;;;;;16.20;67.40;;;;;;6243034;23;19934;-78
2024/01/31 00:43:09;;;;;;;;;;;16.20;67.20;;;;;;6244545;23;19965;-77
2024/01/31 00:45:35;;;;;;;;;;;16.20;67.70;;;;;;6244523;23;19907;-77
2024/01/31 00:48:00;;;;;;;;;;;16.20;66.70;;;;;;6245182;23;19911;-77
2024/01/31 00:50:26;;;;;;;;;;;16.20;66.90;;;;;;6245221;23;19903;-78
2024/01/31 00:52:51;;;;;;;;;;;16.30;67.10;;;;;;6244684;23;19911;-78
2024/01/31 00:55:17;;;;;;;;;;;16.20;67.00;;;;;;6244708;23;19911;-77
2024/01/31 00:57:44;;;;;;;;;;;16.20;66.90;;;;;;6244639;23;19904;-77
2024/01/31 01:00:11;;;;;;;;;;;16.20;66.90;;;;;;6246224;23;19907;-71
2024/01/31 01:02:40;;;;;;;;;;;16.20;66.50;;;;;;6244748;23;19923;-71
2024/01/31 01:05:06;;;;;;;;;;;16.20;66.90;;;;;;6246949;23;19908;-71
2024/01/31 01:07:31;;;;;;;;;;;16.20;66.40;;;;;;6246860;23;20369;-71
2024/01/31 01:09:57;;;;;;;;;;;16.30;67.10;;;;;;6246355;23;19935;-71
2024/01/31 01:12:22;;;;;;;;;;;16.20;67.00;;;;;;6246619;23;19904;-71
2024/01/31 01:14:48;;;;;;;;;;;16.30;66.90;;;;;;6246278;23;19904;-71
2024/01/31 01:17:14;;;;;;;;;;;16.30;66.80;;;;;;6246975;23;19904;-71
2024/01/31 01:19:39;;;;;;;;;;;16.30;66.90;;;;;;6246858;23;19982;-71
2024/01/31 01:22:05;;;;;;;;;;;16.20;66.80;;;;;;6246912;23;19915;-71
2024/01/31 01:24:31;;;;;;;;;;;16.20;66.80;;;;;;6246316;23;19907;-71
2024/01/31 01:26:57;;;;;;;;;;;16.10;66.70;;;;;;6246373;23;20000;-71
2024/01/31 01:29:23;;;;;;;;;;;16.30;66.70;;;;;;6246431;23;19903;-71
2024/01/31 01:31:49;;;;;;;;;;;16.30;66.90;;;;;;6246720;23;19908;-71
2024/01/31 01:34:15;;;;;;;;;;;16.20;66.70;;;;;;6246777;23;19946;-71
2024/01/31 01:36:41;;;;;;;;;;;16.20;66.80;;;;;;6246242;23;19913;-71
2024/01/31 01:39:07;;;;;;;;;;;16.20;66.50;;;;;;6246283;23;19982;-71
2024/01/31 01:41:32;;;;;;;;;;;16.40;66.70;;;;;;6245936;23;19911;-71
2024/01/31 01:43:58;;;;;;;;;;;16.10;66.60;;;;;;6246856;23;19926;-71
2024/01/31 01:46:25;;;;;;;;;;;16.20;66.60;;;;;;6246052;23;19912;-71
2024/01/31 01:48:51;;;;;;;;;;;16.10;66.60;;;;;;6246214;23;20333;-71
2024/01/31 01:51:18;;;;;;;;;;;16.20;66.60;;;;;;6246152;23;19935;-71
2024/01/31 01:53:45;;;;;;;;;;;16.20;66.50;;;;;;6246467;23;19910;-71
2024/01/31 01:56:11;;;;;;;;;;;16.10;66.60;;;;;;6246670;23;20238;-71
2024/01/31 01:58:38;;;;;;;;;;;16.20;66.50;;;;;;6246530;23;19911;-71
2024/01/31 02:01:04;;;;;;;;;;;16.10;65.90;;;;;;6246448;23;19903;-71
2024/01/31 02:03:30;;;;;;;;;;;16.20;65.90;;;;;;6245453;22;19975;-71
2024/01/31 02:06:01;;;;;;;;;;;16.10;66.60;;;;;;6245754;23;19912;-71
2024/01/31 02:08:27;;;;;;;;;;;16.10;62.20;;;;;;6245724;23;19904;-71
2024/01/31 02:10:53;;;;;;;;;;;16.10;66.30;;;;;;6245228;23;19903;-71
2024/01/31 02:13:18;;;;;;;;;;;16.10;66.60;;;;;;6246317;23;19903;-78
2024/01/31 02:15:54;;;;;;;;;;;16.20;66.50;;;;;;6246245;23;19907;-78
2024/01/31 02:18:20;;;;;;;;;;;16.20;62.00;;;;;;6245711;23;19904;-78
2024/01/31 02:20:46;;;;;;;;;;;16.10;66.50;;;;;;6245657;23;19910;-78
2024/01/31 02:23:12;;;;;;;;;;;15.80;66.00;;;;;;6245622;23;19990;-78
2024/01/31 02:25:37;;;;;;;;;;;16.20;66.30;;;;;;6245507;23;19911;-78
2024/01/31 02:28:03;;;;;;;;;;;16.10;66.50;;;;;;6246237;23;19904;-78
2024/01/31 02:30:28;;;;;;;;;;;16.10;65.50;;;;;;6245497;23;19943;-77
2024/01/31 02:32:54;;;;;;;;;;;15.80;66.00;;;;;;6246129;23;20047;-78
2024/01/31 02:35:20;;;;;;;;;;;16.10;66.40;;;;;;6245747;23;19989;-78
2024/01/31 02:37:46;;;;;;;;;;;16.00;66.20;;;;;;6246094;23;19911;-77
2024/01/31 02:40:12;;;;;;;;;;;16.00;66.10;;;;;;6246093;23;19908;-78
2024/01/31 02:42:38;;;;;;;;;;;16.10;66.20;;;;;;6246492;23;20406;-77
2024/01/31 02:45:04;;;;;;;;;;;16.10;66.30;;;;;;6246021;23;20231;-78
2024/01/31 02:47:32;;;;;;;;;;;16.10;65.00;;;;;;6245572;23;19916;-78
2024/01/31 02:49:58;;;;;;;;;;;16.00;66.10;;;;;;6245742;23;19907;-77
2024/01/31 02:52:23;;;;;;;;;;;16.00;66.00;;;;;;6244533;23;19977;-78
2024/01/31 02:54:51;;;;;;;;;;;16.00;66.40;;;;;;6245536;23;20235;-71
2024/01/31 02:57:17;;;;;;;;;;;16.00;66.10;;;;;;6245604;23;19908;-71
2024/01/31 02:59:43;;;;;;;;;;;16.00;66.00;;;;;;6245694;23;19904;-71
2024/01/31 03:02:08;;;;;;;;;;;16.00;65.80;;;;;;6244888;22;19954;-71
2024/01/31 03:04:34;;;;;;;;;;;16.00;66.20;;;;;;6245791;23;19958;-71
2024/01/31 03:06:59;;;;;;;;;;;14.10;64.90;;;;;;6245002;23;19994;-71
2024/01/31 03:09:26;;;;;;;;;;;16.10;66.30;;;;;;6245742;23;19903;-71
2024/01/31 03:11:52;;;;;;;;;;;15.90;65.60;;;;;;6245144;23;19911;-71
2024/01/31 03:14:17;;;;;;;;;;;16.00;65.90;;;;;;6245782;22;19910;-71
2024/01/31 03:16:43;;;;;;;;;;;16.00;66.20;;;;;;6244926;23;20315;-71
2024/01/31 03:19:09;;;;;;;;;;;16.00;66.20;;;;;;6244993;23;20319;-71
2024/01/31 03:21:34;;;;;;;;;;;16.00;66.00;;;;;;6244993;23;19903;-71
2024/01/31 03:24:00;;;;;;;;;;;16.00;66.10;;;;;;6244931;23;19904;-77
2024/01/31 03:26:25;;;;;;;;;;;15.90;66.00;;;;;;6244976;23;19912;-77
2024/01/31 03:28:51;;;;;;;;;;;15.90;66.10;;;;;;6244888;23;19908;-77
2024/01/31 03:31:16;;;;;;;;;;;15.90;65.80;;;;;;6244859;23;19903;-77
2024/01/31 03:33:42;;;;;;;;;;;15.90;65.90;;;;;;6245534;23;20304;-78
2024/01/31 03:36:11;;;;;;;;;;;15.90;66.10;;;;;;6245048;23;19903;-78
2024/01/31 03:38:37;;;;;;;;;;;15.90;61.60;;;;;;6245538;23;19927;-78
2024/01/31 03:41:04;;;;;;;;;;;15.90;66.00;;;;;;6245173;23;20406;-77
2024/01/31 03:43:30;;;;;;;;;;;15.90;66.10;;;;;;6245523;23;19908;-77
2024/01/31 03:45:56;;;;;;;;;;;15.90;66.00;;;;;;6245333;23;19963;-77
2024/01/31 03:48:21;;;;;;;;;;;15.90;65.90;;;;;;6245401;23;19914;-77
2024/01/31 03:50:47;;;;;;;;;;;15.80;66.10;;;;;;6244904;23;19903;-78
2024/01/31 03:53:12;;;;;;;;;;;15.90;66.20;;;;;;6244948;23;19904;-78
2024/01/31 03:55:39;;;;;;;;;;;15.90;66.10;;;;;;6244930;23;19903;-78
2024/01/31 03:58:04;;;;;;;;;;;15.90;66.40;;;;;;6245583;23;19911;-77
2024/01/31 04:00:30;;;;;;;;;;;15.90;66.30;;;;;;6244853;23;19904;-78
2024/01/31 04:02:55;;;;;;;;;;;16.00;66.10;;;;;;6244408;22;19941;-77
2024/01/31 04:05:21;;;;;;;;;;;16.00;66.60;;;;;;6244710;23;20327;-77
2024/01/31 04:07:46;;;;;;;;;;;15.90;66.50;;;;;;6245421;23;19913;-77
2024/01/31 04:10:12;;;;;;;;;;;15.90;66.60;;;;;;6244635;23;19911;-77
2024/01/31 04:12:37;;;;;;;;;;;15.90;66.50;;;;;;6244744;23;20364;-77
2024/01/31 04:15:03;;;;;;;;;;;15.90;66.40;;;;;;6244625;23;19904;-77
2024/01/31 04:17:28;;;;;;;;;;;15.90;65.50;;;;;;6245209;23;19904;-78
2024/01/31 04:19:54;;;;;;;;;;;16.00;66.50;;;;;;6244892;23;19904;-78
2024/01/31 04:22:20;;;;;;;;;;;15.90;66.30;;;;;;6244619;23;19950;-77
2024/01/31 04:24:45;;;;;;;;;;;15.90;66.30;;;;;;6244878;23;19904;-78
2024/01/31 04:27:11;;;;;;;;;;;15.90;67.20;;;;;;6244556;23;20157;-78
2024/01/31 04:29:39;;;;;;;;;;;15.90;66.40;;;;;;6244630;23;19911;-77
2024/01/31 04:32:08;;;;;;;;;;;15.90;62.00;;;;;;6244660;23;20011;-78
2024/01/31 04:34:37;;;;;;;;;;;15.90;62.00;;;;;;6245858;23;19919;-78
2024/01/31 04:37:02;;;;;;;;;;;15.90;66.50;;;;;;6247527;23;20246;-77
2024/01/31 04:39:28;;;;;;;;;;;16.00;66.50;;;;;;6246692;23;19935;-77
2024/01/31 04:41:53;;;;;;;;;;;15.80;66.30;;;;;;6246627;23;19923;-77
2024/01/31 04:44:19;;;;;;;;;;;15.90;66.50;;;;;;6246499;23;20247;-78
2024/01/31 04:46:45;;;;;;;;;;;15.90;66.40;;;;;;6246473;23;19912;-77
2024/01/31 04:49:10;;;;;;;;;;;15.90;66.10;;;;;;6245816;23;19957;-78
2024/01/31 04:51:39;;;;;;;;;;;15.90;66.30;;;;;;6245199;23;19904;-77
2024/01/31 04:54:05;;;;;;;;;;;15.90;66.40;;;;;;6245515;23;20243;-78
2024/01/31 04:56:30;;;;;;;;;;;15.90;66.20;;;;;;6246539;23;19911;-77
2024/01/31 04:58:55;;;;;;;;;;;15.90;66.30;;;;;;6246573;23;19999;-77
2024/01/31 05:01:21;;;;;;;;;;;15.90;65.70;;;;;;6246378;23;19912;-77
2024/01/31 05:03:47;;;;;;;;;;;15.90;65.60;;;;;;6247245;22;19937;-77
2024/01/31 05:06:12;;;;;;;;;;;15.90;66.20;;;;;;6246636;23;19935;-77
2024/01/31 05:08:38;;;;;;;;;;;15.90;66.10;;;;;;6246389;23;19911;-77
2024/01/31 05:11:03;;;;;;;;;;;16.00;65.90;;;;;;6246367;23;19904;-77
2024/01/31 05:13:29;;;;;;;;;;;15.90;65.60;;;;;;6246347;23;19904;-77
2024/01/31 05:15:54;;;;;;;;;;;15.90;66.00;;;;;;6246938;23;19904;-78
2024/01/31 05:18:19;;;;;;;;;;;16.00;66.30;;;;;;6246321;23;19911;-77
2024/01/31 05:20:45;;;;;;;;;;;15.90;66.10;;;;;;6246194;23;19981;-77
2024/01/31 05:23:10;;;;;;;;;;;16.00;65.90;;;;;;6246171;23;19903;-77
2024/01/31 05:25:36;;;;;;;;;;;15.90;66.00;;;;;;6246917;23;19907;-78
2024/01/31 05:28:01;;;;;;;;;;;16.10;66.00;;;;;;6246296;23;19908;-77
2024/01/31 05:30:27;;;;;;;;;;;15.90;65.80;;;;;;6246226;23;19904;-77
2024/01/31 05:32:52;;;;;;;;;;;16.00;65.60;;;;;;6246799;23;20350;-77
2024/01/31 05:35:18;;;;;;;;;;;15.90;66.00;;;;;;6246189;23;20026;-77
2024/01/31 05:37:43;;;;;;;;;;;15.90;65.70;;;;;;6246035;23;19904;-77
2024/01/31 05:40:11;;;;;;;;;;;15.90;66.00;;;;;;6246005;23;19904;-77
2024/01/31 05:42:37;;;;;;;;;;;16.00;64.70;;;;;;6246167;23;19957;-77
2024/01/31 05:45:03;;;;;;;;;;;15.90;65.80;;;;;;6246372;23;19908;-78
2024/01/31 05:47:29;;;;;;;;;;;15.90;64.50;;;;;;6246470;23;19912;-78
2024/01/31 05:49:55;;;;;;;;;;;15.90;65.80;;;;;;6246566;23;20334;-77
2024/01/31 05:52:21;;;;;;;;;;;15.90;65.90;;;;;;6246786;23;19962;-78
2024/01/31 05:54:47;;;;;;;;;;;15.90;65.80;;;;;;6246565;23;19903;-78
2024/01/31 05:57:13;;;;;;;;;;;15.90;65.80;;;;;;6246587;23;19904;-77
2024/01/31 05:59:40;;;;;;;;;;;15.90;65.60;;;;;;6246530;23;19973;-78
2024/01/31 06:02:06;;;;;;;;;;;15.90;65.20;;;;;;6246546;22;19941;-78
2024/01/31 06:04:32;;;;;;;;;;;15.90;65.30;;;;;;6255835;23;19912;-78
2024/01/31 06:06:58;;;;;;;;;;;16.00;65.40;;;;;;6245610;23;19912;-77
2024/01/31 06:09:24;;;;;;;;;;;15.90;65.50;;;;;;6246278;23;19904;-77
2024/01/31 06:11:50;;;;;;;;;;;15.90;65.70;;;;;;6246050;23;19903;-77
2024/01/31 06:14:15;;;;;;;;;;;15.90;65.30;;;;;;6246011;23;20064;-77
2024/01/31 06:16:41;;;;;;;;;;;15.90;65.30;;;;;;6246080;23;19907;-78
2024/01/31 06:19:08;;;;;;;;;;;15.90;65.10;;;;;;6245838;23;19911;-77
2024/01/31 06:21:34;;;;;;;;;;;15.80;65.10;;;;;;6246090;23;19904;-79
2024/01/31 06:24:00;;;;;;;;;;;15.90;65.30;;;;;;6246345;23;20247;-76
2024/01/31 06:26:30;;;;;;;;;;;16.00;65.20;;;;;;6245897;23;19912;-74
2024/01/31 06:28:56;;;;;;;;;;;15.80;65.10;;;;;;6245660;23;19907;-78
2024/01/31 06:31:26;;;;;;;;;;;15.90;64.70;;;;;;6249817;23;20260;-78
2024/01/31 06:33:51;;;;;;;;;;;15.90;61.60;;;;;;6250902;23;20388;-77
2024/01/31 06:36:18;;;;;;;;;;;15.90;65.20;;;;;;6246098;23;19949;-80
2024/01/31 06:38:44;;;;;;;;;;;15.80;65.10;;;;;;6245503;23;19904;-74
2024/01/31 06:41:11;;;;;;;;;;;15.90;65.30;;;;;;6246258;23;19910;-78
2024/01/31 06:43:37;;;;;;;;;;;15.90;65.20;;;;;;6245755;23;20294;-76
2024/01/31 06:46:03;;;;;;;;;;;15.80;64.80;;;;;;6245582;23;19947;-83
2024/01/31 06:48:29;;;;;;;;;;;14.80;63.80;;;;;;6246208;23;19904;-84
2024/01/31 06:50:55;;;;;;;;;;;15.90;64.90;;;;;;6245951;23;19911;-80
2024/01/31 06:53:21;;;;;;;;;;;15.90;64.80;;;;;;6245328;23;20251;-80
2024/01/31 06:55:47;;;;;;;;;;;15.80;65.00;;;;;;6245412;23;19911;-85
2024/01/31 06:58:12;;;;;;;;;;;15.60;65.40;;;;;;6245376;23;19904;-80
2024/01/31 07:00:38;;;;;;;;;;;15.90;64.70;;;;;;6245454;23;20323;-78
2024/01/31 07:03:03;;;;;;;;;;;15.80;64.10;;;;;;6245049;22;19915;-79
2024/01/31 07:05:29;;;;;;;;;;;15.80;64.40;;;;;;6245181;23;19911;-79
2024/01/31 07:07:55;;;;;;;;;;;15.80;64.80;;;;;;6245751;23;19908;-79
2024/01/31 07:10:20;;;;;;;;;;;15.80;65.00;;;;;;6245296;23;19989;-79
2024/01/31 07:12:46;;;;;;;;;;;15.90;65.10;;;;;;6245353;23;19904;-80
2024/01/31 07:15:12;;;;;;;;;;;15.60;65.10;;;;;;6245788;23;19979;-80
2024/01/31 07:17:38;;;;;;;;;;;15.80;64.20;;;;;;6246054;23;20327;-79
2024/01/31 07:20:04;;;;;;;;;;;15.90;65.20;;;;;;6245801;22;20275;-79
2024/01/31 07:22:29;;;;;;;;;;;15.90;64.20;;;;;;6245637;23;19903;-78
2024/01/31 07:24:55;;;;;;;;;;;15.80;65.40;;;;;;6245574;23;19904;-79
2024/01/31 07:27:21;;;;;;;;;;;15.80;65.20;;;;;;6246044;23;19916;-79
2024/01/31 07:29:47;;;;;;;;;;;15.80;65.50;;;;;;6246112;23;19911;-79
2024/01/31 07:32:13;;;;;;;;;;;15.80;65.40;;;;;;6245970;23;19903;-80
2024/01/31 07:34:39;;;;;;;;;;;15.80;65.10;;;;;;6245882;23;19970;-78
2024/01/31 07:37:05;;;;;;;;;;;15.90;65.30;;;;;;6245374;23;19904;-78
2024/01/31 07:39:31;;;;;;;;;;;15.70;65.00;;;;;;6245323;23;20322;-79
2024/01/31 07:41:57;;;;;;;;;;;15.70;65.00;;;;;;6245457;23;20010;-79
2024/01/31 07:44:23;;;;;;;;;;;15.70;64.40;;;;;;6246099;23;19981;-79
2024/01/31 07:46:49;;;;;;;;;;;15.70;65.20;;;;;;6244988;23;20322;-80
2024/01/31 07:49:15;;;;;;;;;;;15.70;65.20;;;;;;6245025;23;19931;-78
2024/01/31 07:51:41;;;;;;;;;;;15.70;65.10;;;;;;6245319;23;19910;-78
2024/01/31 07:54:07;;;;;;;;;;;15.70;65.40;;;;;;6245016;23;19910;-81
2024/01/31 07:56:32;;;;;;;;;;;15.80;65.40;;;;;;6244955;23;20230;-80
2024/01/31 07:58:58;;;;;;;;;;;15.70;65.10;;;;;;6244884;23;20230;-79
2024/01/31 08:01:24;;;;;;;;;;;15.70;64.90;;;;;;6244703;23;19910;-78
2024/01/31 08:03:49;;;;;;;;;;;15.70;65.30;;;;;;6244789;22;19922;-79
2024/01/31 08:06:15;;;;;;;;;;;15.80;65.20;;;;;;6244744;23;19920;-78
2024/01/31 08:08:42;;;;;;;;;;;15.80;64.80;;;;;;6244303;23;19914;-78
2024/01/31 08:11:07;;;;;;;;;;;15.70;65.10;;;;;;6245156;23;19994;-77
2024/01/31 08:13:34;;;;;;;;;;;15.80;65.00;;;;;;6245481;23;19938;-79
2024/01/31 08:16:00;;;;;;;;;;;15.70;65.50;;;;;;6245390;23;19911;-79
2024/01/31 08:18:25;;;;;;;;;;;15.70;65.30;;;;;;6245603;23;20011;-80
2024/01/31 08:20:51;;;;;;;;;;;15.70;65.20;;;;;;6244881;23;20303;-77
2024/01/31 08:23:17;;;;;;;;;;;15.70;64.70;;;;;;6245424;23;19908;-76
2024/01/31 08:25:43;;;;;;;;;;;15.70;65.10;;;;;;6244905;23;20315;-79
2024/01/31 08:28:08;;;;;;;;;;;15.70;65.00;;;;;;6245008;23;20374;-78
2024/01/31 08:30:34;;;;;;;;;;;15.70;65.00;;;;;;6244906;23;19957;-78
2024/01/31 08:32:59;;;;;;;;;;;15.70;65.00;;;;;;6244913;23;20034;-78
2024/01/31 08:35:25;;;;;;;;;;;15.70;65.00;;;;;;6244831;23;19903;-78
2024/01/31 08:37:50;;;;;;;;;;;15.70;64.90;;;;;;6244790;23;19910;-78
2024/01/31 08:40:16;;;;;;;;;;;15.70;65.10;;;;;;6244800;23;19903;-78
2024/01/31 08:42:41;;;;;;;;;;;15.70;65.00;;;;;;6244794;23;19930;-77
2024/01/31 08:45:08;;;;;;;;;;;15.80;64.90;;;;;;6244759;23;19949;-78
2024/01/31 08:47:34;;;;;;;;;;;15.70;63.40;;;;;;6244626;23;20346;-77
2024/01/31 08:49:59;;;;;;;;;;;15.70;64.60;;;;;;6244550;23;19904;-78
2024/01/31 08:52:25;;;;;;;;;;;15.60;64.90;;;;;;6244803;23;19911;-82
2024/01/31 08:54:50;;;;;;;;;;;15.60;65.00;;;;;;6244649;23;20262;-81
2024/01/31 08:57:16;;;;;;;;;;;15.60;64.90;;;;;;6244643;23;19910;-79
2024/01/31 08:59:42;;;;;;;;;;;15.60;64.80;;;;;;6244509;23;19907;-83
2024/01/31 09:02:07;;;;;;;;;;;15.70;64.60;;;;;;6244776;22;19961;-77
2024/01/31 09:04:35;;;;;;;;;;;15.60;65.10;;;;;;6245124;23;19974;-78
2024/01/31 09:07:01;;;;;;;;;;;15.60;64.90;;;;;;6250414;23;20018;-81
2024/01/31 09:09:27;;;;;;;;;;;15.70;65.00;;;;;;6245916;23;20238;-79
2024/01/31 09:11:52;;;;;;;;;;;15.60;64.80;;;;;;6245019;23;19903;-82
2024/01/31 09:14:18;;;;;;;;;;;15.60;64.80;;;;;;6244944;23;19982;-77
2024/01/31 09:16:44;;;;;;;;;;;15.70;65.10;;;;;;6244346;23;19904;-77
2024/01/31 09:19:10;;;;;;;;;;;15.60;64.80;;;;;;6244623;23;20045;-77
2024/01/31 09:21:36;;;;;;;;;;;15.60;64.70;;;;;;6246154;23;19904;-77
2024/01/31 09:24:01;;;;;;;;;;;15.60;64.90;;;;;;6246099;23;19930;-80
2024/01/31 09:26:27;;;;;;;;;;;15.60;64.80;;;;;;6246728;23;19927;-79
2024/01/31 09:28:53;;;;;;;;;;;15.60;64.70;;;;;;6246914;23;19935;-80
2024/01/31 09:31:19;;;;;;;;;;;15.60;64.70;;;;;;6245943;23;19907;-79
2024/01/31 09:33:45;;;;;;;;;;;15.60;65.00;;;;;;6246159;23;19911;-81
2024/01/31 09:36:10;;;;;;;;;;;15.60;64.80;;;;;;6246058;23;19907;-79
2024/01/31 09:38:36;;;;;;;;;;;15.60;65.40;;;;;;6246101;23;19946;-79
2024/01/31 09:41:01;;;;;;;;;;;15.50;65.50;;;;;;6246653;23;19907;-80
2024/01/31 09:43:27;;;;;;;;;;;15.70;64.90;;;;;;6245945;23;19904;-78
2024/01/31 09:45:53;;;;;;;;;;;15.60;64.70;;;;;;6245820;23;19911;-78
2024/01/31 09:48:19;;;;;;;;;;;15.30;64.80;;;;;;6245662;23;19907;-79
2024/01/31 09:50:44;;;;;;;;;;;15.60;65.00;;;;;;6245841;23;19911;-79
2024/01/31 09:53:10;;;;;;;;;;;15.60;65.10;;;;;;6245893;23;19904;-77
2024/01/31 09:55:36;;;;;;;;;;;15.60;65.40;;;;;;6245879;23;19910;-79
2024/01/31 09:58:02;;;;;;;;;;;15.60;64.90;;;;;;6245957;23;19908;-81
2024/01/31 10:00:28;;;;;;;;;;;15.60;65.30;;;;;;6245730;23;19957;-79
2024/01/31 10:02:53;;;;;;;;;;;15.60;64.60;;;;;;6245525;22;19916;-79
2024/01/31 10:05:18;;;;;;;;;;;15.60;65.10;;;;;;6245626;23;19904;-79
2024/01/31 10:07:44;;;;;;;;;;;15.50;64.90;;;;;;6246143;23;19918;-79
2024/01/31 10:10:10;;;;;;;;;;;15.60;64.70;;;;;;6245591;23;19903;-79
2024/01/31 10:12:37;;;;;;;;;;;15.50;65.30;;;;;;6245601;23;19904;-79
2024/01/31 10:15:02;;;;;;;;;;;15.60;65.20;;;;;;6255792;23;20342;-79
2024/01/31 10:17:28;;;;;;;;;;;15.60;64.60;;;;;;6245654;23;19982;-80
2024/01/31 10:19:53;;;;;;;;;;;15.60;65.10;;;;;;6245562;23;19904;-80
2024/01/31 10:22:19;;;;;;;;;;;15.60;65.10;;;;;;6245354;23;19911;-79
2024/01/31 10:24:50;;;;;;;;;;;15.50;65.00;;;;;;6245636;23;19904;-79
2024/01/31 10:27:20;;;;;;;;;;;15.50;60.60;;;;;;6245541;23;19911;-79
2024/01/31 10:29:45;;;;;;;;;;;15.50;65.00;;;;;;6245447;23;19903;-79
2024/01/31 10:32:14;;;;;;;;;;;15.50;65.30;;;;;;6246241;23;19914;-80
2024/01/31 10:34:40;;;;;;;;;;;15.50;64.60;;;;;;6245238;23;20334;-79
2024/01/31 10:37:06;;;;;;;;;;;15.50;65.30;;;;;;6245414;23;20299;-79
2024/01/31 10:39:32;;;;;;;;;;;15.60;65.10;;;;;;6243722;23;19982;-79
2024/01/31 10:41:59;;;;;;;;;;;15.50;65.00;;;;;;6245310;23;19903;-79
2024/01/31 10:44:24;;;;;;;;;;;15.40;65.20;;;;;;6245553;23;19903;-79
2024/01/31 10:46:50;;;;;;;;;;;15.50;65.30;;;;;;6245156;23;19918;-76
2024/01/31 10:49:18;;;;;;;;;;;15.60;64.60;;;;;;6246039;22;19910;-76
2024/01/31 10:51:46;;;;;;;;;;;15.50;61.50;;;;;;6245249;23;19911;-79
2024/01/31 10:54:13;;;;;;;;;;;15.60;65.20;;;;;;6245398;23;19908;-76
2024/01/31 10:56:39;;;;;;;;;;;15.50;65.00;;;;;;6245234;23;19910;-77
2024/01/31 10:59:07;;;;;;;;;;;15.00;64.60;;;;;;6245247;23;19904;-79
2024/01/31 11:01:32;;;;;;;;;;;15.50;64.50;;;;;;6245896;23;19990;-78
2024/01/31 11:04:00;;;;;;;;;;;15.50;64.90;;;;;;6245326;22;19915;-82
2024/01/31 11:06:40;;;;;;;;;;;15.50;65.00;;;;;;6245690;23;20243;-79
2024/01/31 11:09:06;;;;;;;;;;;15.50;60.50;;;;;;6245485;23;19966;-79
2024/01/31 11:11:33;;;;;;;;;;;15.40;64.70;;;;;;6245678;23;19969;-78
2024/01/31 11:14:08;;;;;;;;;;;15.50;64.60;;;;;;6245741;23;20233;-78
2024/01/31 11:16:34;;;;;;;;;;;15.50;60.60;;;;;;6245462;23;19907;-77
2024/01/31 11:19:01;;;;;;;;;;;15.50;64.70;;;;;;6245053;23;19903;-75
2024/01/31 11:21:27;;;;;;;;;;;15.50;64.80;;;;;;6245209;23;19904;-77
2024/01/31 11:23:52;;;;;;;;;;;15.40;64.80;;;;;;6244862;23;19903;-75
2024/01/31 11:26:27;;;;;;;;;;;15.50;64.30;;;;;;6245429;23;19950;-75
2024/01/31 11:28:53;;;;;;;;;;;15.30;64.70;;;;;;6245765;23;19957;-76
2024/01/31 11:31:18;;;;;;;;;;;15.40;64.70;;;;;;6245057;23;19969;-78
2024/01/31 11:33:44;;;;;;;;;;;15.50;64.60;;;;;;6244857;23;19904;-76
2024/01/31 11:36:09;;;;;;;;;;;15.40;65.00;;;;;;6245597;23;20270;-77
2024/01/31 11:38:35;;;;;;;;;;;15.50;64.80;;;;;;6244847;23;19904;-76
2024/01/31 11:41:00;;;;;;;;;;;15.50;64.50;;;;;;6244734;23;19911;-77
2024/01/31 11:43:26;;;;;;;;;;;15.40;64.80;;;;;;6244933;23;19904;-76
2024/01/31 11:45:51;;;;;;;;;;;15.50;64.90;;;;;;6244622;23;19907;-77
2024/01/31 11:48:17;;;;;;;;;;;15.40;64.70;;;;;;6244792;23;19903;-76
2024/01/31 11:50:42;;;;;;;;;;;15.40;64.70;;;;;;6245391;23;19904;-81
2024/01/31 11:53:09;;;;;;;;;;;15.50;64.50;;;;;;6245410;23;19904;-78
2024/01/31 11:55:34;;;;;;;;;;;15.50;64.00;;;;;;6244787;23;20000;-77
2024/01/31 11:58:00;;;;;;;;;;;15.40;64.90;;;;;;6244746;23;19904;-77
2024/01/31 12:00:25;;;;;;;;;;;15.40;64.00;;;;;;6244992;23;19904;-78
2024/01/31 12:02:52;;;;;;;;;;;15.40;63.90;;;;;;6244273;22;19980;-77
2024/01/31 12:05:18;;;;;;;;;;;15.40;64.70;;;;;;6244818;23;19910;-77
2024/01/31 12:07:54;;;;;;;;;;;15.40;63.80;;;;;;6244636;23;19939;-77
2024/01/31 12:10:19;;;;;;;;;;;15.40;64.10;;;;;;6244505;23;19908;-77
2024/01/31 12:12:45;;;;;;;;;;;15.50;64.00;;;;;;6244600;23;19965;-77
2024/01/31 12:15:12;;;;;;;;;;;15.60;63.40;;;;;;6244853;23;19911;-77
2024/01/31 12:17:38;;;;;;;;;;;15.90;63.30;;;;;;6245746;23;19973;-77
2024/01/31 12:20:08;;;;;;;;;;;15.90;62.90;;;;;;6245115;22;19911;-77
2024/01/31 12:22:34;;;;;;;;;;;16.00;57.70;;;;;;6244575;23;19982;-77
2024/01/31 12:25:01;;;;;;;;;;;16.30;62.40;;;;;;6244579;23;19903;-77
2024/01/31 12:27:27;;;;;;;;;;;16.10;62.00;;;;;;6244838;23;19911;-77
2024/01/31 12:29:53;;;;;;;;;;;16.10;62.10;;;;;;6244970;23;19904;-77
2024/01/31 12:32:18;;;;;;;;;;;16.30;62.00;;;;;;6243060;23;19915;-77
2024/01/31 12:34:44;;;;;;;;;;;16.00;62.20;;;;;;6243189;23;19914;-77
2024/01/31 12:37:09;;;;;;;;;;;15.90;62.40;;;;;;6243127;23;19911;-77
2024/01/31 12:39:35;;;;;;;;;;;15.90;62.60;;;;;;6243404;23;19986;-77
2024/01/31 12:42:03;;;;;;;;;;;15.80;62.60;;;;;;6245237;23;20371;-77
2024/01/31 12:44:29;;;;;;;;;;;15.90;62.80;;;;;;6243245;23;19907;-72
2024/01/31 12:46:56;;;;;;;;;;;15.80;63.00;;;;;;6243633;23;19916;-71
2024/01/31 12:49:21;;;;;;;;;;;15.70;63.00;;;;;;6242923;23;19962;-71
2024/01/31 12:51:48;;;;;;;;;;;15.80;63.40;;;;;;6242950;23;20332;-71
2024/01/31 12:54:14;;;;;;;;;;;15.70;63.30;;;;;;6243218;23;19927;-70
2024/01/31 12:56:40;;;;;;;;;;;15.80;63.30;;;;;;6244737;23;19908;-71
2024/01/31 12:59:05;;;;;;;;;;;16.20;63.80;;;;;;6246436;23;19916;-71
2024/01/31 13:01:31;;;;;;;;;;;15.70;63.20;;;;;;6244720;23;19916;-71
2024/01/31 13:03:56;;;;;;;;;;;15.60;63.00;;;;;;6245124;23;19919;-71
2024/01/31 13:06:22;;;;;;;;;;;15.60;63.50;;;;;;6244483;23;19920;-71
2024/01/31 13:08:48;;;;;;;;;;;15.30;63.80;;;;;;6244909;23;19943;-71
2024/01/31 13:11:14;;;;;;;;;;;15.60;64.00;;;;;;6244598;23;19919;-71
2024/01/31 13:13:40;;;;;;;;;;;15.50;63.70;;;;;;6254946;23;19915;-71
2024/01/31 13:16:06;;;;;;;;;;;15.50;63.80;;;;;;6254894;23;19907;-71
2024/01/31 13:18:32;;;;;;;;;;;15.60;63.00;;;;;;6244666;23;20259;-71
2024/01/31 13:21:00;;;;;;;;;;;15.60;63.80;;;;;;6244502;23;19935;-71
2024/01/31 13:23:25;;;;;;;;;;;15.40;63.50;;;;;;6244358;23;19915;-71
2024/01/31 13:25:51;;;;;;;;;;;15.50;63.60;;;;;;6244534;23;19911;-71
2024/01/31 13:28:17;;;;;;;;;;;15.60;63.70;;;;;;6244421;23;20353;-71
2024/01/31 13:30:45;;;;;;;;;;;15.60;62.90;;;;;;6244985;23;19908;-71
2024/01/31 13:33:13;;;;;;;;;;;14.30;58.30;;;;;;6244359;23;20022;-71
2024/01/31 13:35:39;;;;;;;;;;;15.60;63.20;;;;;;6254811;23;19908;-70
2024/01/31 13:38:04;;;;;;;;;;;15.70;63.30;;;;;;6244309;23;19965;-69
2024/01/31 13:40:30;;;;;;;;;;;15.70;63.00;;;;;;6244417;23;20021;-71
2024/01/31 13:42:56;;;;;;;;;;;15.70;63.00;;;;;;6244554;23;20353;-73
2024/01/31 13:45:21;;;;;;;;;;;15.40;62.90;;;;;;6244436;23;19941;-76
2024/01/31 13:47:48;;;;;;;;;;;15.60;63.10;;;;;;6244309;23;20331;-75
2024/01/31 13:50:13;;;;;;;;;;;15.70;62.90;;;;;;6245682;23;19907;-76
2024/01/31 13:52:39;;;;;;;;;;;15.60;62.70;;;;;;6246358;23;19961;-75
2024/01/31 13:55:05;;;;;;;;;;;15.60;63.00;;;;;;6246157;23;19904;-76
2024/01/31 13:57:30;;;;;;;;;;;15.70;61.50;;;;;;6245689;23;19919;-77
2024/01/31 13:59:56;;;;;;;;;;;15.50;63.10;;;;;;6245776;23;19910;-78
2024/01/31 14:02:22;;;;;;;;;;;15.50;63.20;;;;;;6246052;22;20276;-78
2024/01/31 14:04:48;;;;;;;;;;;15.90;63.00;;;;;;6245599;23;19903;-79
2024/01/31 14:07:14;;;;;;;;;;;15.40;63.00;;;;;;6244821;23;19912;-77
2024/01/31 14:09:39;;;;;;;;;;;15.50;63.20;;;;;;6245466;23;19910;-76